createdAt,value
2023-05-16T00:00:00.000Z,9.44
2023-05-16T00:15:00.000Z,9.06
2023-05-16T00:30:00.000Z,9.07
2023-05-16T00:45:00.000Z,8.98
2023-05-16T01:00:00.000Z,9.46
2023-05-16T01:15:00.000Z,9.66
2023-05-16T01:30:00.000Z,9.69
2023-05-16T01:45:00.000Z,10.13
2023-05-16T02:00:00.000Z,10.06
2023-05-16T02:15:00.000Z,9.73
2023-05-16T02:30:00.000Z,10.04
2023-05-16T02:45:00.000Z,10.44
2023-05-16T03:00:00.000Z,10.01
2023-05-16T03:15:00.000Z,8.98
2023-05-16T03:30:00.000Z,8.81
2023-05-16T03:45:00.000Z,9.96
2023-05-16T04:00:00.000Z,11.09
2023-05-16T04:15:00.000Z,13.08
2023-05-16T04:30:00.000Z,10.25
2023-05-16T04:45:00.000Z,11.44
2023-05-16T05:00:00.000Z,14.78
2023-05-16T05:15:00.000Z,13.24
2023-05-16T05:30:00.000Z,12.31
2023-05-16T05:45:00.000Z,10.66
2023-05-16T06:00:00.000Z,9.45
2023-05-16T06:15:00.000Z,10.71
2023-05-16T06:30:00.000Z,10.58
2023-05-16T06:45:00.000Z,10.47
2023-05-16T07:00:00.000Z,10.29
2023-05-16T07:15:00.000Z,10.86
2023-05-16T07:30:00.000Z,10.15
2023-05-16T07:45:00.000Z,9.46
2023-05-16T08:00:00.000Z,10.71
2023-05-16T08:15:00.000Z,9.98
2023-05-16T08:30:00.000Z,10.95
2023-05-16T08:45:00.000Z,13.07
2023-05-16T09:00:00.000Z,16.91
2023-05-16T09:15:00.000Z,15.52
2023-05-16T09:30:00.000Z,15.44
2023-05-16T09:45:00.000Z,19.09
2023-05-16T10:00:00.000Z,20.95
2023-05-16T10:15:00.000Z,19.82
2023-05-16T10:30:00.000Z,21.58
2023-05-16T10:45:00.000Z,22.15
2023-05-16T11:00:00.000Z,28.58
2023-05-16T11:15:00.000Z,29.19
2023-05-16T11:30:00.000Z,27.95
2023-05-16T11:45:00.000Z,30.36
2023-05-16T12:00:00.000Z,28.88
2023-05-16T12:15:00.000Z,28.47
2023-05-16T12:30:00.000Z,29.32
2023-05-16T12:45:00.000Z,27.96
2023-05-16T13:00:00.000Z,26.02
2023-05-16T13:15:00.000Z,29.94
2023-05-16T13:30:00.000Z,21.69
2023-05-16T13:45:00.000Z,18.36
2023-05-16T14:00:00.000Z,18.49
2023-05-16T14:15:00.000Z,20.21
2023-05-16T14:30:00.000Z,23.53
2023-05-16T14:45:00.000Z,24.44
2023-05-16T15:00:00.000Z,25.07
2023-05-16T15:15:00.000Z,26.8
2023-05-16T15:30:00.000Z,26.84
2023-05-16T15:45:00.000Z,28.39
2023-05-16T16:00:00.000Z,25.2
2023-05-16T16:15:00.000Z,26.02
2023-05-16T16:30:00.000Z,29.67
2023-05-16T16:45:00.000Z,20.24
2023-05-16T17:00:00.000Z,21.08
2023-05-16T17:15:00.000Z,23.14
2023-05-16T17:30:00.000Z,24.91
2023-05-16T17:45:00.000Z,23.32
2023-05-16T18:00:00.000Z,22.98
2023-05-16T18:15:00.000Z,23.42
2023-05-16T18:30:00.000Z,25.53
2023-05-16T18:45:00.000Z,26.56
2023-05-16T19:00:00.000Z,28.59
2023-05-16T19:15:00.000Z,27.75
2023-05-16T19:30:00.000Z,28.04
2023-05-16T19:45:00.000Z,27.48
2023-05-16T20:00:00.000Z,27.68
2023-05-16T20:15:00.000Z,27.59
2023-05-16T20:30:00.000Z,31.44
2023-05-16T20:45:00.000Z,29.62
2023-05-16T21:00:00.000Z,26.61
2023-05-16T21:15:00.000Z,18.2
2023-05-16T21:30:00.000Z,25.68
2023-05-16T21:45:00.000Z,30.76
2023-05-16T22:00:00.000Z,33.88
2023-05-16T22:15:00.000Z,37.16
2023-05-16T22:30:00.000Z,41.26
2023-05-16T22:45:00.000Z,41.59
2023-05-16T23:00:00.000Z,43.59
2023-05-16T23:15:00.000Z,42.68
2023-05-16T23:30:00.000Z,40.53
2023-05-16T23:45:00.000Z,39.22
